sensor_id;sensor_type;location;lat;lon;timestamp;P1;durP1;ratioP1;P2;durP2;ratioP2
59468;SDS011;45277;52.768;18.262;2022-09-27T00:00:07;54.33;;;27.80;;
59468;SDS011;45277;52.768;18.262;2022-09-27T00:01:59;50.15;;;26.75;;
59468;SDS011;45277;52.768;18.262;2022-09-27T00:03:30;55.85;;;28.25;;
59468;SDS011;45277;52.768;18.262;2022-09-27T00:05:02;65.32;;;28.38;;
59468;SDS011;45277;52.768;18.262;2022-09-27T00:06:34;54.28;;;26.20;;
59468;SDS011;45277;52.768;18.262;2022-09-27T00:08:05;50.28;;;27.50;;
59468;SDS011;45277;52.768;18.262;2022-09-27T00:09:37;51.78;;;25.75;;
59468;SDS011;45277;52.768;18.262;2022-09-27T00:11:11;45.45;;;25.13;;
59468;SDS011;45277;52.768;18.262;2022-09-27T00:12:48;44.17;;;24.40;;
59468;SDS011;45277;52.768;18.262;2022-09-27T00:14:19;48.28;;;25.52;;
59468;SDS011;45277;52.768;18.262;2022-09-27T00:16:00;44.22;;;24.58;;
59468;SDS011;45277;52.768;18.262;2022-09-27T00:17:37;45.55;;;25.60;;
59468;SDS011;45277;52.768;18.262;2022-09-27T00:19:12;46.17;;;26.45;;
59468;SDS011;45277;52.768;18.262;2022-09-27T00:20:48;55.10;;;26.25;;
59468;SDS011;45277;52.768;18.262;2022-09-27T00:22:19;51.63;;;26.42;;
59468;SDS011;45277;52.768;18.262;2022-09-27T00:23:52;48.70;;;25.60;;
59468;SDS011;45277;52.768;18.262;2022-09-27T00:25:23;46.90;;;24.38;;
59468;SDS011;45277;52.768;18.262;2022-09-27T00:26:55;56.60;;;25.48;;
59468;SDS011;45277;52.768;18.262;2022-09-27T00:28:26;47.67;;;25.23;;
59468;SDS011;45277;52.768;18.262;2022-09-27T00:29:58;56.97;;;25.58;;
59468;SDS011;45277;52.768;18.262;2022-09-27T00:31:30;86.18;;;26.98;;
59468;SDS011;45277;52.768;18.262;2022-09-27T00:33:02;47.25;;;24.85;;
59468;SDS011;45277;52.768;18.262;2022-09-27T00:34:33;50.83;;;25.55;;
59468;SDS011;45277;52.768;18.262;2022-09-27T00:36:05;76.35;;;27.13;;
59468;SDS011;45277;52.768;18.262;2022-09-27T00:37:36;102.78;;;26.70;;
59468;SDS011;45277;52.768;18.262;2022-09-27T00:39:08;205.57;;;30.30;;
59468;SDS011;45277;52.768;18.262;2022-09-27T00:40:39;72.95;;;27.17;;
59468;SDS011;45277;52.768;18.262;2022-09-27T00:42:11;343.77;;;31.05;;
59468;SDS011;45277;52.768;18.262;2022-09-27T00:44:00;87.20;;;25.60;;
59468;SDS011;45277;52.768;18.262;2022-09-27T00:45:34;164.73;;;26.02;;
59468;SDS011;45277;52.768;18.262;2022-09-27T00:49:08;89.63;;;24.95;;
59468;SDS011;45277;52.768;18.262;2022-09-27T00:50:58;105.90;;;23.80;;
59468;SDS011;45277;52.768;18.262;2022-09-27T00:52:35;70.30;;;22.85;;
59468;SDS011;45277;52.768;18.262;2022-09-27T00:54:14;67.82;;;22.35;;
59468;SDS011;45277;52.768;18.262;2022-09-27T00:56:00;60.58;;;22.50;;
59468;SDS011;45277;52.768;18.262;2022-09-27T00:57:37;61.13;;;21.52;;
59468;SDS011;45277;52.768;18.262;2022-09-27T00:59:13;57.00;;;21.50;;
59468;SDS011;45277;52.768;18.262;2022-09-27T01:03:00;49.72;;;20.35;;
59468;SDS011;45277;52.768;18.262;2022-09-27T01:04:37;47.70;;;20.92;;
59468;SDS011;45277;52.768;18.262;2022-09-27T01:06:09;42.08;;;22.20;;
59468;SDS011;45277;52.768;18.262;2022-09-27T01:07:41;47.90;;;21.42;;
59468;SDS011;45277;52.768;18.262;2022-09-27T01:09:12;61.80;;;23.02;;
59468;SDS011;45277;52.768;18.262;2022-09-27T01:10:47;105.05;;;21.23;;
59468;SDS011;45277;52.768;18.262;2022-09-27T01:12:38;124.93;;;21.20;;
59468;SDS011;45277;52.768;18.262;2022-09-27T01:16:09;73.18;;;21.25;;
59468;SDS011;45277;52.768;18.262;2022-09-27T01:28:50;167.10;;;26.70;;
59468;SDS011;45277;52.768;18.262;2022-09-27T01:34:25;158.23;;;26.13;;
59468;SDS011;45277;52.768;18.262;2022-09-27T01:40:08;228.82;;;26.05;;
59468;SDS011;45277;52.768;18.262;2022-09-27T01:45:38;365.63;;;30.90;;
59468;SDS011;45277;52.768;18.262;2022-09-27T01:47:15;178.73;;;26.48;;
59468;SDS011;45277;52.768;18.262;2022-09-27T01:48:49;250.40;;;28.25;;
59468;SDS011;45277;52.768;18.262;2022-09-27T01:51:58;181.05;;;29.38;;
59468;SDS011;45277;52.768;18.262;2022-09-27T01:53:35;366.85;;;32.58;;
59468;SDS011;45277;52.768;18.262;2022-09-27T01:55:10;282.75;;;32.53;;
59468;SDS011;45277;52.768;18.262;2022-09-27T01:56:48;166.57;;;30.10;;
59468;SDS011;45277;52.768;18.262;2022-09-27T02:00:04;223.52;;;30.92;;
59468;SDS011;45277;52.768;18.262;2022-09-27T02:01:38;158.13;;;30.85;;
59468;SDS011;45277;52.768;18.262;2022-09-27T02:03:33;250.23;;;32.97;;
59468;SDS011;45277;52.768;18.262;2022-09-27T02:05:07;219.50;;;31.83;;
59468;SDS011;45277;52.768;18.262;2022-09-27T02:06:44;230.85;;;31.77;;
59468;SDS011;45277;52.768;18.262;2022-09-27T02:08:25;199.15;;;31.05;;
59468;SDS011;45277;52.768;18.262;2022-09-27T02:10:02;232.27;;;32.75;;
59468;SDS011;45277;52.768;18.262;2022-09-27T02:11:40;207.38;;;31.35;;
59468;SDS011;45277;52.768;18.262;2022-09-27T02:13:17;239.27;;;30.77;;
59468;SDS011;45277;52.768;18.262;2022-09-27T02:14:53;328.90;;;36.50;;
59468;SDS011;45277;52.768;18.262;2022-09-27T02:16:28;308.17;;;34.55;;
59468;SDS011;45277;52.768;18.262;2022-09-27T02:18:03;195.05;;;31.08;;
59468;SDS011;45277;52.768;18.262;2022-09-27T02:19:53;266.95;;;31.55;;
59468;SDS011;45277;52.768;18.262;2022-09-27T02:21:55;128.75;;;29.35;;
59468;SDS011;45277;52.768;18.262;2022-09-27T02:23:46;152.75;;;29.23;;
59468;SDS011;45277;52.768;18.262;2022-09-27T02:25:27;259.90;;;34.22;;
59468;SDS011;45277;52.768;18.262;2022-09-27T02:27:07;302.33;;;34.58;;
59468;SDS011;45277;52.768;18.262;2022-09-27T02:28:47;350.60;;;36.75;;
59468;SDS011;45277;52.768;18.262;2022-09-27T02:30:29;324.85;;;35.80;;
59468;SDS011;45277;52.768;18.262;2022-09-27T02:32:00;296.13;;;35.60;;
59468;SDS011;45277;52.768;18.262;2022-09-27T02:33:33;436.73;;;40.97;;
59468;SDS011;45277;52.768;18.262;2022-09-27T02:37:03;242.27;;;33.72;;
59468;SDS011;45277;52.768;18.262;2022-09-27T02:38:35;358.70;;;36.95;;
59468;SDS011;45277;52.768;18.262;2022-09-27T02:40:07;350.00;;;40.65;;
59468;SDS011;45277;52.768;18.262;2022-09-27T02:41:39;266.88;;;36.95;;
59468;SDS011;45277;52.768;18.262;2022-09-27T02:43:11;199.27;;;34.00;;
59468;SDS011;45277;52.768;18.262;2022-09-27T02:44:46;183.85;;;33.92;;
59468;SDS011;45277;52.768;18.262;2022-09-27T02:48:18;225.98;;;34.83;;
59468;SDS011;45277;52.768;18.262;2022-09-27T02:52:00;226.98;;;34.85;;
59468;SDS011;45277;52.768;18.262;2022-09-27T02:55:37;340.17;;;39.38;;
59468;SDS011;45277;52.768;18.262;2022-09-27T03:06:30;122.65;;;29.75;;
59468;SDS011;45277;52.768;18.262;2022-09-27T03:08:02;192.10;;;33.08;;
59468;SDS011;45277;52.768;18.262;2022-09-27T03:09:44;176.90;;;32.45;;
59468;SDS011;45277;52.768;18.262;2022-09-27T03:11:17;280.98;;;33.88;;
59468;SDS011;45277;52.768;18.262;2022-09-27T03:12:49;202.60;;;33.65;;
59468;SDS011;45277;52.768;18.262;2022-09-27T03:14:20;349.25;;;37.65;;
59468;SDS011;45277;52.768;18.262;2022-09-27T03:15:52;213.32;;;35.38;;
59468;SDS011;45277;52.768;18.262;2022-09-27T03:17:23;196.05;;;34.28;;
59468;SDS011;45277;52.768;18.262;2022-09-27T03:18:55;285.33;;;39.70;;
59468;SDS011;45277;52.768;18.262;2022-09-27T03:20:26;286.90;;;37.78;;
59468;SDS011;45277;52.768;18.262;2022-09-27T03:21:58;289.35;;;36.75;;
59468;SDS011;45277;52.768;18.262;2022-09-27T03:23:30;435.40;;;39.70;;
59468;SDS011;45277;52.768;18.262;2022-09-27T03:25:01;244.57;;;32.40;;
59468;SDS011;45277;52.768;18.262;2022-09-27T03:26:34;223.27;;;31.83;;
59468;SDS011;45277;52.768;18.262;2022-09-27T03:28:05;277.63;;;33.88;;
59468;SDS011;45277;52.768;18.262;2022-09-27T03:29:38;243.50;;;34.90;;
59468;SDS011;45277;52.768;18.262;2022-09-27T03:31:09;218.80;;;32.08;;
59468;SDS011;45277;52.768;18.262;2022-09-27T03:32:41;306.45;;;34.97;;
59468;SDS011;45277;52.768;18.262;2022-09-27T03:34:14;297.42;;;36.35;;
59468;SDS011;45277;52.768;18.262;2022-09-27T03:35:46;227.57;;;33.08;;
59468;SDS011;45277;52.768;18.262;2022-09-27T03:37:17;127.22;;;30.05;;
59468;SDS011;45277;52.768;18.262;2022-09-27T03:38:48;270.75;;;34.50;;
59468;SDS011;45277;52.768;18.262;2022-09-27T03:40:20;126.15;;;30.55;;
59468;SDS011;45277;52.768;18.262;2022-09-27T03:41:51;139.82;;;31.95;;
59468;SDS011;45277;52.768;18.262;2022-09-27T03:43:23;176.20;;;31.98;;
59468;SDS011;45277;52.768;18.262;2022-09-27T03:44:55;168.55;;;32.08;;
59468;SDS011;45277;52.768;18.262;2022-09-27T03:46:26;138.63;;;29.45;;
59468;SDS011;45277;52.768;18.262;2022-09-27T03:47:57;78.97;;;27.58;;
59468;SDS011;45277;52.768;18.262;2022-09-27T03:49:29;135.85;;;30.13;;
59468;SDS011;45277;52.768;18.262;2022-09-27T03:51:02;109.68;;;29.50;;
59468;SDS011;45277;52.768;18.262;2022-09-27T03:52:34;114.43;;;29.35;;
59468;SDS011;45277;52.768;18.262;2022-09-27T03:54:06;104.60;;;29.40;;
59468;SDS011;45277;52.768;18.262;2022-09-27T03:55:37;98.30;;;28.85;;
59468;SDS011;45277;52.768;18.262;2022-09-27T03:57:09;105.25;;;29.33;;
59468;SDS011;45277;52.768;18.262;2022-09-27T03:58:41;211.63;;;34.53;;
59468;SDS011;45277;52.768;18.262;2022-09-27T04:00:12;125.78;;;28.45;;
59468;SDS011;45277;52.768;18.262;2022-09-27T04:01:45;161.05;;;32.05;;
59468;SDS011;45277;52.768;18.262;2022-09-27T04:03:16;166.10;;;32.40;;
59468;SDS011;45277;52.768;18.262;2022-09-27T04:04:49;150.18;;;31.08;;
59468;SDS011;45277;52.768;18.262;2022-09-27T04:06:20;103.90;;;29.02;;
59468;SDS011;45277;52.768;18.262;2022-09-27T04:07:52;124.47;;;31.23;;
59468;SDS011;45277;52.768;18.262;2022-09-27T04:09:24;117.20;;;31.05;;
59468;SDS011;45277;52.768;18.262;2022-09-27T04:10:56;92.43;;;28.85;;
59468;SDS011;45277;52.768;18.262;2022-09-27T04:12:27;103.88;;;30.73;;
59468;SDS011;45277;52.768;18.262;2022-09-27T04:13:59;88.28;;;32.10;;
59468;SDS011;45277;52.768;18.262;2022-09-27T04:15:31;83.70;;;29.55;;
59468;SDS011;45277;52.768;18.262;2022-09-27T04:17:03;75.30;;;28.50;;
59468;SDS011;45277;52.768;18.262;2022-09-27T04:18:34;74.22;;;27.33;;
59468;SDS011;45277;52.768;18.262;2022-09-27T04:20:05;80.15;;;29.83;;
59468;SDS011;45277;52.768;18.262;2022-09-27T04:21:37;74.22;;;28.98;;
59468;SDS011;45277;52.768;18.262;2022-09-27T04:23:09;71.00;;;28.25;;
59468;SDS011;45277;52.768;18.262;2022-09-27T04:24:40;64.68;;;28.73;;
59468;SDS011;45277;52.768;18.262;2022-09-27T04:26:11;75.00;;;28.60;;
59468;SDS011;45277;52.768;18.262;2022-09-27T04:27:43;69.75;;;27.92;;
59468;SDS011;45277;52.768;18.262;2022-09-27T04:29:16;69.18;;;30.08;;
59468;SDS011;45277;52.768;18.262;2022-09-27T04:30:47;68.35;;;28.48;;
59468;SDS011;45277;52.768;18.262;2022-09-27T04:32:18;68.50;;;28.67;;
59468;SDS011;45277;52.768;18.262;2022-09-27T04:33:50;75.78;;;29.00;;
59468;SDS011;45277;52.768;18.262;2022-09-27T04:35:22;70.22;;;28.48;;
59468;SDS011;45277;52.768;18.262;2022-09-27T04:37:12;67.78;;;26.83;;
59468;SDS011;45277;52.768;18.262;2022-09-27T04:38:43;74.38;;;27.77;;
59468;SDS011;45277;52.768;18.262;2022-09-27T04:40:14;73.28;;;27.63;;
59468;SDS011;45277;52.768;18.262;2022-09-27T04:41:47;70.90;;;27.75;;
59468;SDS011;45277;52.768;18.262;2022-09-27T04:43:18;71.45;;;28.52;;
59468;SDS011;45277;52.768;18.262;2022-09-27T04:44:50;70.03;;;27.02;;
59468;SDS011;45277;52.768;18.262;2022-09-27T04:46:21;68.93;;;27.92;;
59468;SDS011;45277;52.768;18.262;2022-09-27T04:47:54;74.35;;;29.42;;
59468;SDS011;45277;52.768;18.262;2022-09-27T04:49:25;67.18;;;27.65;;
59468;SDS011;45277;52.768;18.262;2022-09-27T04:50:58;69.13;;;27.63;;
59468;SDS011;45277;52.768;18.262;2022-09-27T04:52:32;77.35;;;28.77;;
59468;SDS011;45277;52.768;18.262;2022-09-27T04:54:03;68.80;;;28.20;;
59468;SDS011;45277;52.768;18.262;2022-09-27T04:55:35;78.82;;;28.25;;
59468;SDS011;45277;52.768;18.262;2022-09-27T04:57:06;84.53;;;29.33;;
59468;SDS011;45277;52.768;18.262;2022-09-27T04:58:38;69.00;;;28.23;;
59468;SDS011;45277;52.768;18.262;2022-09-27T05:00:10;92.57;;;30.60;;
59468;SDS011;45277;52.768;18.262;2022-09-27T05:01:41;75.05;;;28.00;;
59468;SDS011;45277;52.768;18.262;2022-09-27T05:03:13;79.60;;;30.52;;
59468;SDS011;45277;52.768;18.262;2022-09-27T05:04:44;80.75;;;28.70;;
59468;SDS011;45277;52.768;18.262;2022-09-27T05:06:16;90.28;;;31.38;;
59468;SDS011;45277;52.768;18.262;2022-09-27T05:07:47;76.75;;;30.33;;
59468;SDS011;45277;52.768;18.262;2022-09-27T05:09:18;93.05;;;31.25;;
59468;SDS011;45277;52.768;18.262;2022-09-27T05:10:50;76.50;;;30.50;;
59468;SDS011;45277;52.768;18.262;2022-09-27T05:12:22;78.30;;;29.52;;
59468;SDS011;45277;52.768;18.262;2022-09-27T05:13:56;85.65;;;31.65;;
59468;SDS011;45277;52.768;18.262;2022-09-27T05:15:27;72.25;;;29.50;;
59468;SDS011;45277;52.768;18.262;2022-09-27T05:16:58;84.03;;;30.33;;
59468;SDS011;45277;52.768;18.262;2022-09-27T05:18:30;76.63;;;29.42;;
59468;SDS011;45277;52.768;18.262;2022-09-27T05:20:02;84.47;;;31.88;;
59468;SDS011;45277;52.768;18.262;2022-09-27T05:21:34;86.43;;;30.52;;
59468;SDS011;45277;52.768;18.262;2022-09-27T05:23:05;100.40;;;31.90;;
59468;SDS011;45277;52.768;18.262;2022-09-27T05:24:37;96.00;;;32.40;;
59468;SDS011;45277;52.768;18.262;2022-09-27T05:26:08;94.65;;;31.10;;
59468;SDS011;45277;52.768;18.262;2022-09-27T05:27:41;98.13;;;31.00;;
59468;SDS011;45277;52.768;18.262;2022-09-27T05:29:12;85.57;;;30.48;;
59468;SDS011;45277;52.768;18.262;2022-09-27T05:30:44;102.93;;;31.45;;
59468;SDS011;45277;52.768;18.262;2022-09-27T05:32:16;95.28;;;30.48;;
59468;SDS011;45277;52.768;18.262;2022-09-27T05:33:47;107.90;;;31.77;;
59468;SDS011;45277;52.768;18.262;2022-09-27T05:35:19;132.25;;;29.95;;
59468;SDS011;45277;52.768;18.262;2022-09-27T05:36:51;150.05;;;32.88;;
59468;SDS011;45277;52.768;18.262;2022-09-27T05:38:23;149.73;;;30.35;;
59468;SDS011;45277;52.768;18.262;2022-09-27T05:39:55;135.90;;;30.15;;
59468;SDS011;45277;52.768;18.262;2022-09-27T05:41:26;163.52;;;33.72;;
59468;SDS011;45277;52.768;18.262;2022-09-27T05:42:58;142.05;;;31.45;;
59468;SDS011;45277;52.768;18.262;2022-09-27T05:44:29;159.88;;;33.65;;
59468;SDS011;45277;52.768;18.262;2022-09-27T05:46:01;118.80;;;31.50;;
59468;SDS011;45277;52.768;18.262;2022-09-27T05:47:34;112.78;;;30.25;;
59468;SDS011;45277;52.768;18.262;2022-09-27T05:49:06;98.63;;;30.65;;
59468;SDS011;45277;52.768;18.262;2022-09-27T05:50:37;107.53;;;30.77;;
59468;SDS011;45277;52.768;18.262;2022-09-27T05:52:09;106.75;;;32.88;;
59468;SDS011;45277;52.768;18.262;2022-09-27T05:53:40;135.52;;;32.17;;
59468;SDS011;45277;52.768;18.262;2022-09-27T05:55:12;103.35;;;29.92;;
59468;SDS011;45277;52.768;18.262;2022-09-27T05:56:43;100.85;;;30.05;;
59468;SDS011;45277;52.768;18.262;2022-09-27T05:58:15;141.95;;;30.17;;
59468;SDS011;45277;52.768;18.262;2022-09-27T05:59:46;117.28;;;32.05;;
59468;SDS011;45277;52.768;18.262;2022-09-27T06:01:18;95.55;;;29.92;;
59468;SDS011;45277;52.768;18.262;2022-09-27T06:02:57;113.95;;;31.02;;
59468;SDS011;45277;52.768;18.262;2022-09-27T06:04:30;99.50;;;28.60;;
59468;SDS011;45277;52.768;18.262;2022-09-27T06:06:01;99.55;;;28.83;;
59468;SDS011;45277;52.768;18.262;2022-09-27T06:07:36;110.88;;;29.48;;
59468;SDS011;45277;52.768;18.262;2022-09-27T06:09:10;102.88;;;28.65;;
59468;SDS011;45277;52.768;18.262;2022-09-27T06:10:43;110.45;;;28.60;;
59468;SDS011;45277;52.768;18.262;2022-09-27T06:12:15;117.50;;;30.25;;
59468;SDS011;45277;52.768;18.262;2022-09-27T06:13:47;93.97;;;28.13;;
59468;SDS011;45277;52.768;18.262;2022-09-27T06:15:18;93.95;;;28.65;;
59468;SDS011;45277;52.768;18.262;2022-09-27T06:16:49;112.00;;;27.45;;
59468;SDS011;45277;52.768;18.262;2022-09-27T06:18:21;88.20;;;27.73;;
59468;SDS011;45277;52.768;18.262;2022-09-27T06:19:52;110.35;;;29.45;;
59468;SDS011;45277;52.768;18.262;2022-09-27T06:21:23;101.13;;;29.95;;
59468;SDS011;45277;52.768;18.262;2022-09-27T06:23:30;85.82;;;29.70;;
59468;SDS011;45277;52.768;18.262;2022-09-27T06:24:55;90.03;;;27.98;;
59468;SDS011;45277;52.768;18.262;2022-09-27T06:26:26;105.78;;;30.30;;
59468;SDS011;45277;52.768;18.262;2022-09-27T06:27:58;88.13;;;29.90;;
59468;SDS011;45277;52.768;18.262;2022-09-27T06:29:29;98.00;;;27.67;;
59468;SDS011;45277;52.768;18.262;2022-09-27T06:31:05;75.70;;;25.50;;
59468;SDS011;45277;52.768;18.262;2022-09-27T06:32:38;83.05;;;28.98;;
59468;SDS011;45277;52.768;18.262;2022-09-27T06:34:09;80.90;;;28.50;;
59468;SDS011;45277;52.768;18.262;2022-09-27T06:35:41;80.32;;;28.40;;
59468;SDS011;45277;52.768;18.262;2022-09-27T06:37:15;113.07;;;32.78;;
59468;SDS011;45277;52.768;18.262;2022-09-27T06:38:46;85.68;;;28.05;;
59468;SDS011;45277;52.768;18.262;2022-09-27T06:40:18;80.40;;;27.17;;
59468;SDS011;45277;52.768;18.262;2022-09-27T06:41:52;73.82;;;28.27;;
59468;SDS011;45277;52.768;18.262;2022-09-27T06:43:27;80.22;;;28.45;;
59468;SDS011;45277;52.768;18.262;2022-09-27T06:45:00;76.38;;;28.05;;
59468;SDS011;45277;52.768;18.262;2022-09-27T06:46:31;68.75;;;28.00;;
59468;SDS011;45277;52.768;18.262;2022-09-27T06:48:03;76.65;;;29.08;;
59468;SDS011;45277;52.768;18.262;2022-09-27T06:49:36;74.47;;;28.33;;
59468;SDS011;45277;52.768;18.262;2022-09-27T06:51:09;74.20;;;28.52;;
59468;SDS011;45277;52.768;18.262;2022-09-27T06:52:49;76.45;;;29.25;;
59468;SDS011;45277;52.768;18.262;2022-09-27T06:54:21;58.38;;;26.58;;
59468;SDS011;45277;52.768;18.262;2022-09-27T06:55:52;65.88;;;28.42;;
59468;SDS011;45277;52.768;18.262;2022-09-27T06:57:29;81.38;;;29.92;;
59468;SDS011;45277;52.768;18.262;2022-09-27T06:59:19;63.35;;;27.60;;
59468;SDS011;45277;52.768;18.262;2022-09-27T07:01:09;70.57;;;28.10;;
59468;SDS011;45277;52.768;18.262;2022-09-27T07:02:41;74.20;;;28.88;;
59468;SDS011;45277;52.768;18.262;2022-09-27T07:04:12;68.05;;;29.38;;
59468;SDS011;45277;52.768;18.262;2022-09-27T07:06:04;73.95;;;29.30;;
59468;SDS011;45277;52.768;18.262;2022-09-27T07:07:36;62.08;;;29.35;;
59468;SDS011;45277;52.768;18.262;2022-09-27T07:09:07;64.45;;;29.60;;
59468;SDS011;45277;52.768;18.262;2022-09-27T07:10:39;66.32;;;30.90;;
59468;SDS011;45277;52.768;18.262;2022-09-27T07:12:10;75.15;;;30.60;;
59468;SDS011;45277;52.768;18.262;2022-09-27T07:13:43;62.92;;;29.35;;
59468;SDS011;45277;52.768;18.262;2022-09-27T07:15:14;66.15;;;30.08;;
59468;SDS011;45277;52.768;18.262;2022-09-27T07:16:45;64.72;;;28.75;;
59468;SDS011;45277;52.768;18.262;2022-09-27T07:18:17;58.92;;;27.35;;
59468;SDS011;45277;52.768;18.262;2022-09-27T07:19:48;60.25;;;27.50;;
59468;SDS011;45277;52.768;18.262;2022-09-27T07:21:20;55.50;;;26.60;;
59468;SDS011;45277;52.768;18.262;2022-09-27T07:22:51;62.53;;;27.67;;
59468;SDS011;45277;52.768;18.262;2022-09-27T07:24:22;55.55;;;27.95;;
59468;SDS011;45277;52.768;18.262;2022-09-27T07:25:54;53.28;;;27.25;;
59468;SDS011;45277;52.768;18.262;2022-09-27T07:27:25;57.13;;;28.48;;
59468;SDS011;45277;52.768;18.262;2022-09-27T07:28:57;55.22;;;27.92;;
59468;SDS011;45277;52.768;18.262;2022-09-27T07:30:28;52.92;;;25.48;;
59468;SDS011;45277;52.768;18.262;2022-09-27T07:32:01;54.10;;;26.70;;
59468;SDS011;45277;52.768;18.262;2022-09-27T07:33:33;51.75;;;26.95;;
59468;SDS011;45277;52.768;18.262;2022-09-27T07:35:05;54.45;;;25.77;;
59468;SDS011;45277;52.768;18.262;2022-09-27T07:36:37;50.13;;;26.92;;
59468;SDS011;45277;52.768;18.262;2022-09-27T07:38:09;51.20;;;27.80;;
59468;SDS011;45277;52.768;18.262;2022-09-27T07:39:45;52.72;;;26.33;;
59468;SDS011;45277;52.768;18.262;2022-09-27T07:41:17;46.95;;;25.40;;
59468;SDS011;45277;52.768;18.262;2022-09-27T07:42:57;48.78;;;27.17;;
59468;SDS011;45277;52.768;18.262;2022-09-27T07:44:29;47.78;;;26.30;;
59468;SDS011;45277;52.768;18.262;2022-09-27T07:46:00;45.65;;;26.45;;
59468;SDS011;45277;52.768;18.262;2022-09-27T07:47:31;46.78;;;26.13;;
59468;SDS011;45277;52.768;18.262;2022-09-27T07:49:03;43.15;;;25.30;;
59468;SDS011;45277;52.768;18.262;2022-09-27T07:50:34;47.28;;;25.85;;
59468;SDS011;45277;52.768;18.262;2022-09-27T07:52:07;39.42;;;23.88;;
59468;SDS011;45277;52.768;18.262;2022-09-27T07:53:39;39.17;;;24.10;;
59468;SDS011;45277;52.768;18.262;2022-09-27T07:55:11;38.78;;;24.67;;
59468;SDS011;45277;52.768;18.262;2022-09-27T07:56:44;41.58;;;24.77;;
59468;SDS011;45277;52.768;18.262;2022-09-27T07:58:15;43.85;;;24.67;;
59468;SDS011;45277;52.768;18.262;2022-09-27T07:59:47;37.63;;;24.73;;
59468;SDS011;45277;52.768;18.262;2022-09-27T08:01:18;35.45;;;22.42;;
59468;SDS011;45277;52.768;18.262;2022-09-27T08:02:50;34.92;;;23.35;;
59468;SDS011;45277;52.768;18.262;2022-09-27T08:04:21;37.15;;;23.52;;
59468;SDS011;45277;52.768;18.262;2022-09-27T08:05:52;32.63;;;21.88;;
59468;SDS011;45277;52.768;18.262;2022-09-27T08:07:24;31.23;;;21.65;;
59468;SDS011;45277;52.768;18.262;2022-09-27T08:08:56;33.03;;;21.23;;
59468;SDS011;45277;52.768;18.262;2022-09-27T08:10:29;29.42;;;21.13;;
59468;SDS011;45277;52.768;18.262;2022-09-27T08:12:02;29.95;;;21.20;;
59468;SDS011;45277;52.768;18.262;2022-09-27T08:13:35;29.25;;;20.42;;
59468;SDS011;45277;52.768;18.262;2022-09-27T08:15:07;25.45;;;18.70;;
59468;SDS011;45277;52.768;18.262;2022-09-27T08:16:39;28.30;;;19.38;;
59468;SDS011;45277;52.768;18.262;2022-09-27T08:18:11;26.38;;;18.73;;
59468;SDS011;45277;52.768;18.262;2022-09-27T08:19:42;24.50;;;18.58;;
59468;SDS011;45277;52.768;18.262;2022-09-27T08:21:15;26.02;;;18.88;;
59468;SDS011;45277;52.768;18.262;2022-09-27T08:22:46;24.88;;;17.58;;
59468;SDS011;45277;52.768;18.262;2022-09-27T08:24:17;22.20;;;17.70;;
59468;SDS011;45277;52.768;18.262;2022-09-27T08:25:52;25.30;;;18.08;;
59468;SDS011;45277;52.768;18.262;2022-09-27T08:27:24;25.88;;;17.30;;
59468;SDS011;45277;52.768;18.262;2022-09-27T08:28:55;26.15;;;18.90;;
59468;SDS011;45277;52.768;18.262;2022-09-27T08:30:27;22.85;;;18.33;;
59468;SDS011;45277;52.768;18.262;2022-09-27T08:32:02;25.45;;;18.88;;
59468;SDS011;45277;52.768;18.262;2022-09-27T08:33:33;25.90;;;18.50;;
59468;SDS011;45277;52.768;18.262;2022-09-27T08:35:05;26.88;;;18.67;;
59468;SDS011;45277;52.768;18.262;2022-09-27T08:36:36;26.58;;;19.15;;
59468;SDS011;45277;52.768;18.262;2022-09-27T08:38:08;26.27;;;19.95;;
59468;SDS011;45277;52.768;18.262;2022-09-27T08:39:41;29.52;;;19.88;;
59468;SDS011;45277;52.768;18.262;2022-09-27T08:44:43;26.85;;;19.90;;
59468;SDS011;45277;52.768;18.262;2022-09-27T08:46:26;25.20;;;18.13;;
59468;SDS011;45277;52.768;18.262;2022-09-27T08:48:09;30.63;;;18.23;;
59468;SDS011;45277;52.768;18.262;2022-09-27T08:50:02;24.02;;;17.20;;
59468;SDS011;45277;52.768;18.262;2022-09-27T08:51:58;24.85;;;17.58;;
59468;SDS011;45277;52.768;18.262;2022-09-27T08:53:32;25.75;;;17.67;;
59468;SDS011;45277;52.768;18.262;2022-09-27T08:55:38;21.40;;;16.27;;
59468;SDS011;45277;52.768;18.262;2022-09-27T08:57:19;20.75;;;15.88;;
59468;SDS011;45277;52.768;18.262;2022-09-27T08:58:57;21.58;;;15.43;;
59468;SDS011;45277;52.768;18.262;2022-09-27T09:00:37;24.13;;;15.80;;
59468;SDS011;45277;52.768;18.262;2022-09-27T09:02:16;19.58;;;15.77;;
59468;SDS011;45277;52.768;18.262;2022-09-27T09:03:52;22.23;;;15.70;;
59468;SDS011;45277;52.768;18.262;2022-09-27T09:05:27;21.35;;;15.75;;
59468;SDS011;45277;52.768;18.262;2022-09-27T09:07:09;20.38;;;15.30;;
59468;SDS011;45277;52.768;18.262;2022-09-27T09:11:03;23.10;;;15.25;;
59468;SDS011;45277;52.768;18.262;2022-09-27T09:15:17;20.02;;;15.25;;
59468;SDS011;45277;52.768;18.262;2022-09-27T09:20:54;18.33;;;14.85;;
59468;SDS011;45277;52.768;18.262;2022-09-27T09:24:33;17.80;;;14.75;;
59468;SDS011;45277;52.768;18.262;2022-09-27T09:26:23;18.73;;;15.40;;
59468;SDS011;45277;52.768;18.262;2022-09-27T09:30:12;20.00;;;15.38;;
59468;SDS011;45277;52.768;18.262;2022-09-27T09:31:57;18.48;;;14.48;;
59468;SDS011;45277;52.768;18.262;2022-09-27T09:33:36;19.08;;;15.07;;
59468;SDS011;45277;52.768;18.262;2022-09-27T09:35:19;20.33;;;15.15;;
59468;SDS011;45277;52.768;18.262;2022-09-27T09:37:00;19.52;;;15.05;;
59468;SDS011;45277;52.768;18.262;2022-09-27T09:38:47;20.88;;;15.02;;
59468;SDS011;45277;52.768;18.262;2022-09-27T09:40:23;18.92;;;13.95;;
59468;SDS011;45277;52.768;18.262;2022-09-27T09:42:07;21.55;;;16.08;;
59468;SDS011;45277;52.768;18.262;2022-09-27T09:43:49;18.92;;;13.68;;
59468;SDS011;45277;52.768;18.262;2022-09-27T09:45:29;19.67;;;15.25;;
59468;SDS011;45277;52.768;18.262;2022-09-27T09:47:09;19.75;;;14.70;;
59468;SDS011;45277;52.768;18.262;2022-09-27T09:48:59;18.38;;;14.27;;
59468;SDS011;45277;52.768;18.262;2022-09-27T09:50:44;19.63;;;14.10;;
59468;SDS011;45277;52.768;18.262;2022-09-27T09:52:22;17.77;;;14.73;;
59468;SDS011;45277;52.768;18.262;2022-09-27T09:54:04;19.88;;;14.27;;
59468;SDS011;45277;52.768;18.262;2022-09-27T09:55:47;20.20;;;14.63;;
59468;SDS011;45277;52.768;18.262;2022-09-27T09:57:27;19.00;;;15.15;;
59468;SDS011;45277;52.768;18.262;2022-09-27T10:00:12;19.08;;;13.57;;
59468;SDS011;45277;52.768;18.262;2022-09-27T10:03:05;19.40;;;14.07;;
59468;SDS011;45277;52.768;18.262;2022-09-27T10:04:37;17.33;;;14.07;;
59468;SDS011;45277;52.768;18.262;2022-09-27T10:06:09;18.58;;;14.05;;
59468;SDS011;45277;52.768;18.262;2022-09-27T10:07:41;19.80;;;15.30;;
59468;SDS011;45277;52.768;18.262;2022-09-27T10:09:14;19.48;;;14.60;;